Stoutsville, OH (43154)

7:44 PM EDT on September 04, 2015 (GMT -0400)
Circleville Ohio | | Change Station
CLOSE
Current Station
Personal Weather Station
Location: Circleville, OH
Elevation: 732 ft
Nearby Weather Stations

Elev 732 ft 39.59 °N, 82.91 °W | Updated 9 seconds ago

Partly Cloudy
Partly Cloudy
67.8 °F
Feels Like 67.8 °F
N
0.0
Wind Variable Wind from East
Gusts 0.0 mph

Today
High -- | Low -- °F
--% Chance of Precip.
Yesterday
High -- | Low -- °F
Precip. -- in
7:02 AM 7:57 PM
Waning Gibbous, 55% visible
Pressure 30.08 in
Visibility 10.0 miles
Clouds Mostly Cloudy 11000 ft
Dew Point 67 °F
Humidity 98%
Rainfall 1.22 in
Snow Depth Not available.
UV 0.0 out of 12
Pollen 9.90 out of 12
Air Quality Not available.
Flu Activity Not available.
METAR KLHQ 042253Z AUTO 17005KT 10SM BKN110 21/19 A3009 RMK AO2 LTG DSNT ALQDS RAE37 TSE36 SLP184 P0007 T02060189
Pressure 30.08 in
Visibility 10.0 miles
Clouds Mostly Cloudy 11000 ft
Dew Point 67 °F
Humidity 98%
Rainfall 1.22 in
Snow Depth Not available.
UV 0.0 out of 12
Pollen 9.90 out of 12
Air Quality Not available.
Flu Activity Not available.
METAR KLHQ 042253Z AUTO 17005KT 10SM BKN110 21/19 A3009 RMK AO2 LTG DSNT ALQDS RAE37 TSE36 SLP184 P0007 T02060189

10-Day Weather Forecast

×

Almanac

Astronomy

Sep. 04, 2015 Rise Set
Actual Time
Civil Twilight
Nautical Twilight
Astronomical Twilight
Moon
Length of Visible Light
Length of Day
Tomorrow will be .
, % of the Moon is Illuminated

Today's Extremes

State Highs State Lows

Community

WunderPhotos

Upload Photos

1,852,338 photos uploaded!

WunderBlogs® & News

Nearby

Air Quality

  Air Quality AQ Index Pollutant
Not available.

Snow Depth

Station Depth Elevation

Earthquake Activity

City Distance Mag. Time & Date
Minimum magnitude displayed is 2.5.

Coastal Water Temperatures

Place Temperature

Stations

Nearby Weather Stations

Station Location Temp. Windchill Dew Point Humidity Wind Precip. Elev Updated Type